createdAt,value
2019-04-07T00:00:26.524Z,90.9804
2019-04-07T00:01:44.377Z,90.4234
2019-04-07T00:03:02.453Z,90.9316
2019-04-07T00:04:20.355Z,90.5364
2019-04-07T00:05:37.875Z,90.8217
2019-04-07T00:06:56.141Z,90.3075
2019-04-07T00:08:13.669Z,89.6727
2019-04-07T00:09:31.132Z,90.0237
2019-04-07T00:10:48.614Z,91.1467
2019-04-07T00:12:06.131Z,92.2454
2019-04-07T00:13:23.651Z,92.2667
2019-04-07T00:14:41.104Z,91.6640
2019-04-07T00:15:57.551Z,91.4931
2019-04-07T00:17:15.018Z,91.6991
2019-04-07T00:18:32.527Z,90.6935
2019-04-07T00:19:50.406Z,90.1289
2019-04-07T00:21:07.896Z,88.9021
2019-04-07T00:22:25.318Z,89.4606
2019-04-07T00:23:42.979Z,89.7093
2019-04-07T00:25:00.720Z,89.3339
2019-04-07T00:26:18.255Z,90.0023
2019-04-07T00:27:35.737Z,89.7856
2019-04-07T00:28:53.202Z,89.4118
2019-04-07T00:30:10.755Z,89.6590
2019-04-07T00:31:28.877Z,90.4509
2019-04-07T00:32:46.769Z,89.2363
2019-04-07T00:34:04.252Z,89.0486
2019-04-07T00:35:26.822Z,88.4947
2019-04-07T00:36:43.083Z,88.9662
2019-04-07T00:38:00.616Z,88.4581
2019-04-07T00:39:18.113Z,88.5649
2019-04-07T00:40:35.889Z,89.1875
2019-04-07T00:41:53.332Z,88.9845
2019-04-07T00:43:10.884Z,89.2592
2019-04-07T00:44:29.023Z,90.0557
2019-04-07T00:45:47.007Z,90.1350
2019-04-07T00:47:04.480Z,89.8650
2019-04-07T00:48:22.159Z,90.3166
2019-04-07T00:49:40.078Z,90.0603
2019-04-07T00:50:57.634Z,90.3853
2019-04-07T00:52:15.050Z,90.5547
2019-04-07T00:53:32.599Z,89.9229
2019-04-07T00:54:50.055Z,89.7597
2019-04-07T00:56:07.487Z,89.8970
2019-04-07T00:57:25.344Z,90.3761
2019-04-07T00:58:44.493Z,91.5404
2019-04-07T01:00:02.824Z,90.8980
2019-04-07T01:01:20.720Z,89.6391
2019-04-07T01:02:38.757Z,92.3400
2019-04-07T01:03:56.833Z,90.3761
2019-04-07T01:05:14.773Z,91.4931
2019-04-07T01:06:32.921Z,90.5547
2019-04-07T01:07:50.947Z,91.5480
2019-04-07T01:09:09.110Z,90.3181
2019-04-07T01:10:27.264Z,89.7490
2019-04-07T01:11:44.782Z,91.4382
2019-04-07T01:13:02.212Z,91.5816
2019-04-07T01:14:19.806Z,90.6569
2019-04-07T01:15:37.267Z,91.8700
2019-04-07T01:16:53.760Z,92.1111
2019-04-07T01:18:11.207Z,91.2413
2019-04-07T01:19:28.870Z,90.6966
2019-04-07T01:20:46.869Z,89.1859
2019-04-07T01:22:04.331Z,89.5399
2019-04-07T01:23:22.344Z,89.4987
2019-04-07T01:24:40.503Z,89.1829
2019-04-07T01:25:58.536Z,89.7673
2019-04-07T01:27:16.043Z,89.9428
2019-04-07T01:28:33.488Z,90.2617
2019-04-07T01:29:50.938Z,91.4855
2019-04-07T01:31:08.777Z,91.1192
2019-04-07T01:32:26.676Z,91.4580
2019-04-07T01:33:44.348Z,91.2291
2019-04-07T01:35:02.414Z,90.8980
2019-04-07T01:36:19.942Z,90.9819
2019-04-07T01:37:37.381Z,90.5501
2019-04-07T01:38:54.887Z,90.1945
2019-04-07T01:40:12.372Z,89.8039
2019-04-07T01:41:29.806Z,89.3278
2019-04-07T01:42:47.286Z,89.9199
2019-04-07T01:44:04.798Z,88.9357
2019-04-07T01:45:22.285Z,89.1920
2019-04-07T01:46:39.704Z,89.3507
2019-04-07T01:47:57.145Z,89.4301
2019-04-07T01:49:15.025Z,89.1859
2019-04-07T01:50:32.781Z,89.2607
2019-04-07T01:51:50.442Z,89.0089
2019-04-07T01:53:07.893Z,89.4026
2019-04-07T01:54:25.705Z,89.4621
2019-04-07T01:55:43.881Z,89.7993
2019-04-07T01:57:01.407Z,90.1900
2019-04-07T01:58:20.057Z,90.7927
2019-04-07T01:59:37.672Z,90.7378
2019-04-07T02:00:54.158Z,91.2337
2019-04-07T02:02:11.584Z,91.2963
2019-04-07T02:03:29.105Z,91.3436
2019-04-07T02:04:46.553Z,91.4443
2019-04-07T02:06:05.557Z,91.6808
2019-04-07T02:07:23.777Z,91.7372
2019-04-07T02:08:41.725Z,91.6869
2019-04-07T02:10:00.045Z,91.3558
2019-04-07T02:11:17.528Z,91.2474
2019-04-07T02:12:35.168Z,91.0689
2019-04-07T02:13:53.263Z,90.1289
2019-04-07T02:15:11.310Z,89.4286
2019-04-07T02:16:28.780Z,89.7948
2019-04-07T02:17:46.926Z,90.3273
2019-04-07T02:19:05.047Z,90.3914
2019-04-07T02:20:23.189Z,90.1564
2019-04-07T02:21:40.713Z,90.0618
2019-04-07T02:22:58.167Z,90.0389
2019-04-07T02:24:15.771Z,90.1610
2019-04-07T02:25:33.274Z,90.1518
2019-04-07T02:26:50.755Z,90.4173
2019-04-07T02:28:08.202Z,90.6844
2019-04-07T02:29:25.662Z,91.0414
2019-04-07T02:30:43.118Z,91.2612
2019-04-07T02:32:01.315Z,91.4488
2019-04-07T02:33:19.883Z,91.3695
2019-04-07T02:34:36.351Z,90.9453
2019-04-07T02:35:53.801Z,90.5333
2019-04-07T02:37:11.990Z,89.9886
2019-04-07T02:38:29.385Z,89.6483
2019-04-07T02:39:47.066Z,88.4276
2019-04-07T02:41:04.544Z,87.5471
2019-04-07T02:42:22.800Z,87.4052
2019-04-07T02:43:40.397Z,86.8666
2019-04-07T02:44:57.887Z,86.5553
2019-04-07T02:46:14.833Z,86.2242
2019-04-07T02:47:32.307Z,86.4073
2019-04-07T02:48:50.980Z,86.4363
2019-04-07T02:50:08.868Z,85.9724
2019-04-07T02:51:26.401Z,85.9449
2019-04-07T02:52:43.876Z,85.8167
2019-04-07T02:54:02.546Z,86.5049
2019-04-07T02:55:21.871Z,86.6377
2019-04-07T02:56:39.899Z,86.9795
2019-04-07T02:57:58.263Z,86.8162
2019-04-07T02:59:16.192Z,87.0939
2019-04-07T03:00:33.686Z,87.2740
2019-04-07T03:01:52.003Z,87.0542
2019-04-07T03:03:09.540Z,87.7531
2019-04-07T03:04:27.020Z,87.9911
2019-04-07T03:05:45.261Z,87.9866
2019-04-07T03:07:03.008Z,87.8492
2019-04-07T03:08:20.466Z,87.9820
2019-04-07T03:09:37.909Z,87.6478
2019-04-07T03:10:55.491Z,88.4581
2019-04-07T03:12:13.759Z,88.6458
2019-04-07T03:13:31.634Z,88.8716
2019-04-07T03:14:49.411Z,88.1972
2019-04-07T03:16:07.671Z,88.0705
2019-04-07T03:17:25.662Z,87.9973
2019-04-07T03:18:44.247Z,87.6707
2019-04-07T03:20:02.891Z,87.6570
2019-04-07T03:21:20.492Z,87.6387
2019-04-07T03:22:38.457Z,87.4022
2019-04-07T03:23:56.484Z,87.8141
2019-04-07T03:25:14.014Z,88.0552
2019-04-07T03:26:32.275Z,86.9535
2019-04-07T03:27:51.393Z,87.4983
2019-04-07T03:29:09.752Z,87.2770
2019-04-07T03:30:28.425Z,86.6560
2019-04-07T03:31:50.407Z,87.1717
2019-04-07T03:33:13.235Z,85.6474
2019-04-07T03:34:33.388Z,85.6077
2019-04-07T03:35:53.874Z,86.0792
2019-04-07T03:37:27.089Z,86.2669
2019-04-07T03:38:36.710Z,86.5263
2019-04-07T03:39:54.289Z,87.0451
2019-04-07T03:41:12.011Z,86.1006
2019-04-07T03:42:29.833Z,86.5049
2019-04-07T03:43:48.317Z,84.7410
2019-04-07T03:45:06.073Z,85.0950
2019-04-07T03:46:23.730Z,85.9098
2019-04-07T03:47:42.319Z,86.3996
2019-04-07T03:48:59.931Z,86.0975
2019-04-07T03:50:18.544Z,85.8167
2019-04-07T03:51:36.402Z,85.8732
2019-04-07T03:52:54.466Z,85.0568
2019-04-07T03:54:12.930Z,85.4414
2019-04-07T03:55:31.097Z,85.3147
2019-04-07T03:56:48.846Z,85.2140
2019-04-07T03:58:08.020Z,86.0060
2019-04-07T03:59:24.948Z,86.3630
2019-04-07T04:00:43.426Z,87.3838
2019-04-07T04:02:00.900Z,88.5267
2019-04-07T04:03:19.289Z,89.3187
2019-04-07T04:04:37.267Z,90.0984
2019-04-07T04:05:55.165Z,90.2754
2019-04-07T04:07:22.609Z,90.3319
2019-04-07T04:08:36.240Z,90.5272
2019-04-07T04:09:54.579Z,90.5379
2019-04-07T04:11:12.043Z,89.7215
2019-04-07T04:12:30.021Z,90.0648
2019-04-07T04:13:47.805Z,90.5272
2019-04-07T04:15:06.675Z,90.9621
2019-04-07T04:16:24.923Z,91.1696
2019-04-07T04:17:43.067Z,91.5770
2019-04-07T04:19:00.517Z,91.8318
2019-04-07T04:20:17.962Z,92.1294
2019-04-07T04:21:36.363Z,90.5135
2019-04-07T04:22:54.726Z,91.0780
2019-04-07T04:24:12.327Z,91.8196
2019-04-07T04:25:30.406Z,92.0485
2019-04-07T04:26:48.038Z,92.1904
2019-04-07T04:28:05.517Z,91.8959
2019-04-07T04:29:23.358Z,91.9738
2019-04-07T04:30:42.042Z,92.6558
2019-04-07T04:32:01.399Z,92.9122
2019-04-07T04:33:19.904Z,92.6513
2019-04-07T04:34:39.009Z,92.9122
2019-04-07T04:35:56.537Z,93.2464
2019-04-07T04:37:14.770Z,93.6828
2019-04-07T04:38:32.410Z,93.2189
2019-04-07T04:39:50.975Z,93.6355
2019-04-07T04:41:08.726Z,93.2799
2019-04-07T04:42:26.823Z,93.3394
2019-04-07T04:43:45.150Z,93.7453
2019-04-07T04:45:02.471Z,93.5134
2019-04-07T04:46:20.055Z,93.2692
2019-04-07T04:47:38.128Z,92.9305
2019-04-07T04:48:56.724Z,93.1289
2019-04-07T04:50:14.825Z,92.7153
2019-04-07T04:51:36.271Z,92.8450
2019-04-07T04:52:54.759Z,92.8618
2019-04-07T04:54:12.585Z,93.8109
2019-04-07T04:55:30.129Z,93.6629
2019-04-07T04:56:47.558Z,93.3715
2019-04-07T04:58:05.420Z,93.4356
2019-04-07T04:59:22.989Z,94.4091
2019-04-07T05:00:41.369Z,94.3404
2019-04-07T05:01:59.034Z,94.6334
2019-04-07T05:03:17.364Z,94.2046
2019-04-07T05:04:35.590Z,94.5235
2019-04-07T05:05:53.478Z,94.4564
2019-04-07T05:07:11.317Z,93.9193
2019-04-07T05:08:29.601Z,93.5714
2019-04-07T05:09:52.504Z,93.7835
2019-04-07T05:11:09.611Z,93.9345
2019-04-07T05:12:27.441Z,93.0312
2019-04-07T05:13:44.972Z,92.8496
2019-04-07T05:15:02.453Z,92.4926
2019-04-07T05:16:19.901Z,90.6096
2019-04-07T05:17:36.929Z,89.2790
2019-04-07T05:18:54.578Z,88.6961
2019-04-07T05:20:12.402Z,87.0481
2019-04-07T05:21:30.381Z,86.3401
2019-04-07T05:22:48.726Z,85.9129
2019-04-07T05:24:06.812Z,86.3218
2019-04-07T05:25:24.939Z,85.8396
2019-04-07T05:26:43.024Z,85.5970
2019-04-07T05:28:01.180Z,85.3742
2019-04-07T05:29:18.703Z,85.3147
2019-04-07T05:30:36.562Z,85.6764
2019-04-07T05:31:54.091Z,85.8915
2019-04-07T05:33:12.077Z,85.2598
2019-04-07T05:34:29.572Z,85.3361
2019-04-07T05:35:47.009Z,85.1362
2019-04-07T05:37:04.439Z,85.0263
2019-04-07T05:38:22.338Z,84.8249
2019-04-07T05:39:40.370Z,83.3921
2019-04-07T05:40:58.664Z,83.6332
2019-04-07T05:42:16.642Z,82.9191
2019-04-07T05:43:35.444Z,81.5885
2019-04-07T05:44:53.574Z,83.1083
2019-04-07T05:46:11.059Z,82.2568
2019-04-07T05:47:27.637Z,82.0737
2019-04-07T05:48:45.294Z,82.4155
2019-04-07T05:50:04.111Z,81.2985
2019-04-07T05:51:22.875Z,81.5381
2019-04-07T05:52:41.098Z,81.7624
2019-04-07T05:53:59.284Z,83.4867
2019-04-07T05:55:20.646Z,82.2385
2019-04-07T05:56:39.321Z,80.0626
2019-04-07T05:57:57.501Z,82.1088
2019-04-07T05:59:15.667Z,83.1083
2019-04-07T06:00:33.981Z,83.9399
2019-04-07T06:01:54.808Z,84.8798
2019-04-07T06:03:13.903Z,84.4800
2019-04-07T06:04:31.502Z,84.2145
2019-04-07T06:05:51.117Z,85.2644
2019-04-07T06:07:09.130Z,85.6153
2019-04-07T06:08:32.564Z,84.2802
2019-04-07T06:09:51.262Z,83.3692
2019-04-07T06:11:10.409Z,83.5615
2019-04-07T06:12:28.859Z,84.8158
2019-04-07T06:13:46.611Z,84.5731
2019-04-07T06:15:04.237Z,84.9393
2019-04-07T06:16:22.555Z,83.6759
2019-04-07T06:17:40.082Z,81.6022
2019-04-07T06:18:57.758Z,81.8250
2019-04-07T06:20:17.547Z,80.7828
2019-04-07T06:21:35.198Z,76.4279
2019-04-07T06:22:53.742Z,74.7372
2019-04-07T06:24:12.233Z,78.0179
2019-04-07T06:25:33.096Z,74.3130
2019-04-07T06:26:52.105Z,78.5336
2019-04-07T06:28:09.662Z,73.0022
2019-04-07T06:29:27.962Z,75.3658
2019-04-07T06:30:46.159Z,75.5993
2019-04-07T06:32:05.513Z,76.0296
2019-04-07T06:33:25.299Z,73.8857
2019-04-07T06:34:44.173Z,77.9583
2019-04-07T06:36:01.894Z,76.0479
2019-04-07T06:37:20.130Z,76.6476
2019-04-07T06:38:41.617Z,78.8968
2019-04-07T06:39:59.950Z,78.2452
2019-04-07T06:41:17.430Z,78.0255
2019-04-07T06:42:35.461Z,79.4583
2019-04-07T06:43:52.963Z,79.1074
2019-04-07T06:45:10.875Z,78.2238
2019-04-07T06:46:28.686Z,75.5123
2019-04-07T06:47:46.389Z,77.7417
2019-04-07T06:49:04.282Z,76.9192
2019-04-07T06:50:22.454Z,76.1944
2019-04-07T06:51:39.945Z,74.0917
2019-04-07T06:52:57.699Z,74.8806
2019-04-07T06:54:18.538Z,68.5130
2019-04-07T06:55:37.554Z,69.8344
2019-04-07T06:56:55.500Z,69.1676
2019-04-07T06:58:12.981Z,66.7216
2019-04-07T06:59:30.434Z,66.4897
2019-04-07T07:00:46.967Z,66.6621
2019-04-07T07:02:04.463Z,69.3462
2019-04-07T07:03:22.484Z,69.0120
2019-04-07T07:04:43.593Z,71.5801
2019-04-07T07:06:03.655Z,70.0908
2019-04-07T07:07:21.558Z,70.6950
2019-04-07T07:08:45.830Z,70.0740
2019-04-07T07:10:02.126Z,69.4408
2019-04-07T07:11:28.060Z,71.1589
2019-04-07T07:12:42.536Z,70.2388
2019-04-07T07:13:59.009Z,68.1743
2019-04-07T07:15:16.436Z,66.0761
2019-04-07T07:16:33.931Z,67.6020
2019-04-07T07:17:52.238Z,69.1905
2019-04-07T07:19:12.907Z,67.2084
2019-04-07T07:20:31.193Z,70.5119
2019-04-07T07:21:49.052Z,67.9820
2019-04-07T07:23:07.676Z,70.6172
2019-04-07T07:24:26.345Z,68.2368
2019-04-07T07:25:44.013Z,67.8431
2019-04-07T07:27:02.684Z,68.4260
2019-04-07T07:28:23.710Z,69.8482
2019-04-07T07:29:45.341Z,68.7312
2019-04-07T07:31:04.298Z,66.5583
2019-04-07T07:32:22.560Z,67.2801
2019-04-07T07:33:42.440Z,65.5833
2019-04-07T07:35:01.038Z,66.2516
2019-04-07T07:36:21.419Z,68.3970
2019-04-07T07:37:40.151Z,64.4160
2019-04-07T07:39:02.269Z,63.9628
2019-04-07T07:40:22.119Z,61.5030
2019-04-07T07:41:41.014Z,61.4389
2019-04-07T07:42:59.438Z,61.6510
2019-04-07T07:44:17.581Z,61.4176
2019-04-07T07:45:35.052Z,61.4206
2019-04-07T07:46:52.815Z,61.0132
2019-04-07T07:48:10.889Z,60.1862
2019-04-07T07:49:33.535Z,64.1901
2019-04-07T07:50:51.212Z,63.2120
2019-04-07T07:52:08.669Z,63.6591
2019-04-07T07:53:28.238Z,65.5787
2019-04-07T07:54:46.356Z,68.4672
2019-04-07T07:56:08.454Z,64.8737
2019-04-07T07:57:26.229Z,64.4373
2019-04-07T07:58:43.935Z,64.3641
2019-04-07T08:00:04.550Z,64.1367
2019-04-07T08:01:24.427Z,64.8417
2019-04-07T08:02:42.050Z,64.8676
2019-04-07T08:03:59.746Z,67.2801
2019-04-07T08:05:17.250Z,67.1763
2019-04-07T08:06:36.680Z,67.1305
2019-04-07T08:07:56.784Z,67.1244
2019-04-07T08:09:15.510Z,66.6178
2019-04-07T08:10:36.354Z,65.9312
2019-04-07T08:11:54.388Z,68.4062
2019-04-07T08:13:11.868Z,65.7343
2019-04-07T08:14:29.364Z,65.8991
2019-04-07T08:15:46.946Z,66.1448
2019-04-07T08:17:04.483Z,63.6423
2019-04-07T08:18:21.906Z,64.3000
2019-04-07T08:19:42.257Z,62.7619
2019-04-07T08:21:00.765Z,62.7268
2019-04-07T08:22:27.462Z,64.9928
2019-04-07T08:23:43.650Z,64.1627
2019-04-07T08:25:02.573Z,66.2013
2019-04-07T08:26:23.890Z,64.2100
2019-04-07T08:27:41.991Z,65.0645
2019-04-07T08:29:00.102Z,64.7272
2019-04-07T08:30:17.331Z,62.8168
2019-04-07T08:31:34.923Z,63.0228
2019-04-07T08:32:53.242Z,66.6270
2019-04-07T08:34:10.955Z,64.4099
2019-04-07T08:35:28.849Z,61.9745
2019-04-07T08:36:42.490Z,60.2579
2019-04-07T08:38:00.975Z,59.2920
2019-04-07T08:39:23.771Z,62.8306
2019-04-07T08:40:40.842Z,59.4110
2019-04-07T08:41:58.303Z,57.4624
2019-04-07T08:43:19.680Z,59.8337
2019-04-07T08:44:38.146Z,58.7839
2019-04-07T08:45:55.764Z,55.2682
2019-04-07T08:47:18.844Z,53.8232
2019-04-07T08:48:35.587Z,52.1523
2019-04-07T08:49:55.434Z,53.5424
2019-04-07T08:51:14.904Z,52.9305
2019-04-07T08:52:33.153Z,50.3059
2019-04-07T08:53:50.622Z,51.1894
2019-04-07T08:55:08.083Z,53.1579
2019-04-07T08:56:26.648Z,51.4824
2019-04-07T08:57:45.680Z,50.1610
2019-04-07T08:59:03.897Z,52.6741
2019-04-07T09:00:21.463Z,55.4894
2019-04-07T09:01:38.937Z,57.5387
2019-04-07T09:03:03.642Z,56.1975
2019-04-07T09:04:18.928Z,54.7295
2019-04-07T09:05:37.377Z,55.3780
2019-04-07T09:06:54.890Z,55.4574
2019-04-07T09:08:12.317Z,51.5709
2019-04-07T09:09:33.907Z,53.4020
2019-04-07T09:10:53.828Z,56.3210
2019-04-07T09:12:11.448Z,54.3618
2019-04-07T09:13:31.677Z,53.0526
2019-04-07T09:14:51.462Z,52.6009
2019-04-07T09:16:11.527Z,53.2647
2019-04-07T09:17:38.577Z,52.9305
2019-04-07T09:19:01.120Z,51.2917
2019-04-07T09:20:16.939Z,52.4712
2019-04-07T09:21:39.975Z,54.1054
2019-04-07T09:22:58.257Z,49.8482
2019-04-07T09:24:16.757Z,51.8532
2019-04-07T09:25:37.855Z,57.5311
2019-04-07T09:26:56.666Z,60.5615
2019-04-07T09:28:14.300Z,60.2579
2019-04-07T09:29:32.431Z,53.9193
2019-04-07T09:30:42.157Z,54.8440
2019-04-07T09:32:00.105Z,53.9788
2019-04-07T09:33:16.730Z,61.2253
2019-04-07T09:34:34.555Z,60.9903
2019-04-07T09:35:56.673Z,61.3519
2019-04-07T09:37:17.675Z,59.8566
2019-04-07T09:38:36.943Z,62.8138
2019-04-07T09:39:59.553Z,61.2329
2019-04-07T09:41:21.569Z,61.8616
2019-04-07T09:42:40.223Z,62.1180
2019-04-07T09:44:01.113Z,65.9159
2019-04-07T09:45:19.979Z,64.8539
2019-04-07T09:46:41.629Z,62.5940
2019-04-07T09:47:59.982Z,62.3545
2019-04-07T09:49:21.239Z,62.8763
2019-04-07T09:50:40.805Z,60.8530
2019-04-07T09:51:58.287Z,61.3672
2019-04-07T09:53:17.071Z,64.0040
2019-04-07T09:54:36.190Z,62.8000
2019-04-07T09:55:55.558Z,58.2483
2019-04-07T09:57:14.154Z,57.3205
2019-04-07T09:58:32.006Z,57.1283
2019-04-07T09:59:52.209Z,56.4355
2019-04-07T10:01:11.078Z,54.4228
2019-04-07T10:02:32.038Z,53.0541
2019-04-07T10:03:51.063Z,52.9381
2019-04-07T10:05:11.131Z,57.0672
2019-04-07T10:06:29.843Z,63.8849
2019-04-07T10:07:47.905Z,60.5875
2019-04-07T10:09:05.575Z,59.9832
2019-04-07T10:10:23.731Z,61.0773
2019-04-07T10:11:41.760Z,60.1358
2019-04-07T10:12:59.743Z,63.6088
2019-04-07T10:14:18.457Z,64.1276
2019-04-07T10:15:36.152Z,61.1276
2019-04-07T10:16:53.672Z,61.7609
2019-04-07T10:18:11.135Z,63.7064
2019-04-07T10:19:29.252Z,60.3998
2019-04-07T10:20:47.370Z,59.6124
2019-04-07T10:22:04.808Z,60.9918
2019-04-07T10:23:23.097Z,59.8657
2019-04-07T10:24:40.607Z,60.1068
2019-04-07T10:25:58.461Z,59.3851
2019-04-07T10:27:17.620Z,58.8754
2019-04-07T10:28:36.710Z,57.7417
2019-04-07T10:29:56.611Z,58.5794
2019-04-07T10:31:13.801Z,59.9252
2019-04-07T10:32:31.887Z,60.6241
2019-04-07T10:33:49.486Z,63.2715
2019-04-07T10:35:07.054Z,63.7644
2019-04-07T10:36:25.801Z,62.9541
2019-04-07T10:37:44.301Z,59.6872
2019-04-07T10:39:03.160Z,63.4852
2019-04-07T10:40:23.063Z,63.8483
2019-04-07T10:41:41.737Z,61.5778
2019-04-07T10:42:59.757Z,63.3219
2019-04-07T10:44:17.906Z,65.7710
2019-04-07T10:45:35.515Z,65.5039
2019-04-07T10:46:52.961Z,65.4047
2019-04-07T10:48:11.109Z,64.1596
2019-04-07T10:49:29.568Z,64.2680
2019-04-07T10:50:47.067Z,64.6799
2019-04-07T10:52:04.575Z,64.9638
2019-04-07T10:53:22.727Z,64.7028
2019-04-07T10:54:40.478Z,66.2959
2019-04-07T10:55:57.997Z,64.4114
2019-04-07T10:57:16.634Z,63.1968
2019-04-07T10:58:35.109Z,62.4155
2019-04-07T10:59:53.295Z,60.0900
2019-04-07T11:01:11.124Z,59.1546
2019-04-07T11:02:29.362Z,61.8738
2019-04-07T11:03:46.871Z,58.9441
2019-04-07T11:05:05.111Z,60.4456
2019-04-07T11:06:22.788Z,59.6735
2019-04-07T11:07:40.431Z,58.4283
2019-04-07T11:08:57.918Z,62.6947
2019-04-07T11:10:15.885Z,64.8280
2019-04-07T11:11:33.374Z,61.7105
2019-04-07T11:12:51.354Z,61.1429
2019-04-07T11:14:09.855Z,61.8570
2019-04-07T11:15:28.304Z,62.4567
2019-04-07T11:16:46.998Z,61.6358
2019-04-07T11:18:04.614Z,62.4094
2019-04-07T11:19:22.084Z,60.5142
2019-04-07T11:20:39.525Z,61.1566
2019-04-07T11:21:57.961Z,63.3951
2019-04-07T11:23:15.609Z,62.6429
2019-04-07T11:24:33.859Z,61.4801
2019-04-07T11:25:51.400Z,60.4288
2019-04-07T11:27:09.275Z,60.1343
2019-04-07T11:28:28.855Z,62.3697
2019-04-07T11:29:46.715Z,59.4995
2019-04-07T11:31:04.165Z,60.9506
2019-04-07T11:32:20.655Z,58.4054
2019-04-07T11:33:38.114Z,59.7086
2019-04-07T11:34:55.551Z,59.0127
2019-04-07T11:36:13.811Z,61.3428
2019-04-07T11:37:31.346Z,59.1043
2019-04-07T11:38:49.477Z,58.6236
2019-04-07T11:40:06.993Z,58.7655
2019-04-07T11:41:27.326Z,58.1247
2019-04-07T11:42:46.075Z,59.3103
2019-04-07T11:44:03.580Z,62.3087
2019-04-07T11:45:21.061Z,60.7996
2019-04-07T11:46:38.923Z,59.1821
2019-04-07T11:47:55.395Z,59.0219
2019-04-07T11:49:13.506Z,60.4089
2019-04-07T11:50:31.055Z,58.6191
2019-04-07T11:51:48.956Z,58.4558
2019-04-07T11:53:07.443Z,61.0697
2019-04-07T11:54:25.201Z,62.6123
2019-04-07T11:55:43.179Z,60.6851
2019-04-07T11:57:00.896Z,60.0061
2019-04-07T11:58:25.534Z,61.0513
2019-04-07T11:59:39.870Z,60.6973
2019-04-07T12:00:58.103Z,59.9237
2019-04-07T12:02:18.561Z,60.4227
2019-04-07T12:03:36.467Z,60.8270
2019-04-07T12:04:55.382Z,60.4288
2019-04-07T12:06:14.335Z,60.1679
2019-04-07T12:07:33.569Z,62.9541
2019-04-07T12:08:51.173Z,62.1317
2019-04-07T12:10:09.548Z,58.1704
2019-04-07T12:11:27.745Z,59.1089
2019-04-07T12:12:45.288Z,60.0626
2019-04-07T12:14:02.845Z,59.3210
2019-04-07T12:15:24.172Z,57.6394
2019-04-07T12:16:42.705Z,58.4588
2019-04-07T12:18:00.311Z,57.8927
2019-04-07T12:19:20.391Z,58.9273
2019-04-07T12:20:42.011Z,59.5361
2019-04-07T12:21:59.510Z,57.7401
2019-04-07T12:23:21.773Z,57.3892
2019-04-07T12:24:39.359Z,57.9293
2019-04-07T12:25:57.586Z,58.9029
2019-04-07T12:27:15.183Z,59.2920
2019-04-07T12:28:33.392Z,60.6058
2019-04-07T12:29:51.898Z,58.0880
2019-04-07T12:31:10.215Z,58.3505
2019-04-07T12:32:27.708Z,59.0738
2019-04-07T12:33:45.221Z,58.6099
2019-04-07T12:35:03.183Z,60.8026
2019-04-07T12:36:21.581Z,60.6790
2019-04-07T12:37:43.340Z,60.4181
2019-04-07T12:39:01.918Z,57.5448
2019-04-07T12:40:22.341Z,57.2732
2019-04-07T12:41:40.064Z,57.1649
2019-04-07T12:42:58.088Z,57.4563
2019-04-07T12:44:15.863Z,57.9202
2019-04-07T12:45:35.642Z,58.3444
2019-04-07T12:46:54.008Z,59.6490
2019-04-07T12:48:11.625Z,59.2203
2019-04-07T12:49:29.863Z,56.4416
2019-04-07T12:50:49.825Z,56.9894
2019-04-07T12:52:08.573Z,56.5728
2019-04-07T12:53:26.384Z,54.0551
2019-04-07T12:54:43.969Z,52.8023
2019-04-07T12:56:02.453Z,53.4432
2019-04-07T12:57:20.188Z,52.6452
2019-04-07T12:58:41.221Z,53.8766
2019-04-07T12:59:59.806Z,51.2627
2019-04-07T13:01:19.802Z,52.6589
2019-04-07T13:02:38.127Z,52.4224
2019-04-07T13:03:55.851Z,53.6034
2019-04-07T13:05:13.490Z,54.5922
2019-04-07T13:06:30.995Z,51.9875
2019-04-07T13:07:51.247Z,49.1249
2019-04-07T13:09:10.342Z,47.9530
2019-04-07T13:10:28.062Z,48.2979
2019-04-07T13:11:49.425Z,47.6921
2019-04-07T13:13:08.022Z,48.0507
2019-04-07T13:14:25.707Z,46.8864
2019-04-07T13:15:47.478Z,47.9530
2019-04-07T13:17:05.707Z,49.1997
2019-04-07T13:18:23.187Z,49.1661
2019-04-07T13:19:44.043Z,48.9921
2019-04-07T13:21:03.321Z,48.9693
2019-04-07T13:22:21.526Z,45.1896
2019-04-07T13:23:39.717Z,43.9536
2019-04-07T13:24:59.008Z,45.2842
2019-04-07T13:26:17.604Z,45.8061
2019-04-07T13:27:37.231Z,47.0512
2019-04-07T13:28:56.426Z,47.9759
2019-04-07T13:30:13.914Z,46.9749
2019-04-07T13:31:31.864Z,47.5364
2019-04-07T13:32:53.004Z,46.8864
2019-04-07T13:34:12.690Z,47.1672
2019-04-07T13:35:29.261Z,46.3737
2019-04-07T13:36:46.695Z,46.7460
2019-04-07T13:38:05.559Z,46.8971
2019-04-07T13:39:22.021Z,48.0171
2019-04-07T13:40:42.655Z,51.2963
2019-04-07T13:42:02.217Z,45.8946
2019-04-07T13:43:19.686Z,44.1367
2019-04-07T13:44:39.627Z,45.8656
2019-04-07T13:45:58.830Z,48.0079
2019-04-07T13:47:16.403Z,49.4545
2019-04-07T13:48:35.509Z,51.6075
2019-04-07T13:49:55.406Z,52.7321
2019-04-07T13:51:15.745Z,50.8690
2019-04-07T13:52:34.411Z,50.3243
2019-04-07T13:53:52.331Z,50.0496
2019-04-07T13:55:09.826Z,48.5893
2019-04-07T13:56:27.276Z,50.2739
2019-04-07T13:57:45.003Z,48.0903
2019-04-07T13:59:05.961Z,48.2521
2019-04-07T14:00:25.223Z,49.5293
2019-04-07T14:01:42.710Z,50.0587
2019-04-07T14:03:01.320Z,50.6004
2019-04-07T14:04:21.159Z,53.3928
2019-04-07T14:05:40.687Z,49.3736
2019-04-07T14:06:58.820Z,49.8207
2019-04-07T14:08:16.466Z,51.6014
2019-04-07T14:09:35.380Z,53.0068
2019-04-07T14:10:52.912Z,49.6757
2019-04-07T14:12:12.530Z,49.3416
2019-04-07T14:13:31.153Z,50.6813
2019-04-07T14:14:49.398Z,50.1183
2019-04-07T14:16:07.419Z,49.1768
2019-04-07T14:17:25.004Z,50.9834
2019-04-07T14:18:44.991Z,48.4611
2019-04-07T14:20:05.011Z,49.2546
2019-04-07T14:21:22.788Z,49.2866
2019-04-07T14:22:40.996Z,50.2892
2019-04-07T14:23:59.315Z,50.1778
2019-04-07T14:25:16.823Z,48.3650
2019-04-07T14:26:34.646Z,48.5893
2019-04-07T14:27:52.601Z,52.2347
2019-04-07T14:29:10.109Z,52.7779
2019-04-07T14:30:28.044Z,53.4936
2019-04-07T14:31:45.542Z,54.4686
2019-04-07T14:33:03.454Z,57.0260
2019-04-07T14:34:21.771Z,55.3292
2019-04-07T14:35:39.249Z,55.4971
2019-04-07T14:37:00.030Z,49.8543
2019-04-07T14:38:17.516Z,50.2556
2019-04-07T14:39:35.809Z,47.1305
2019-04-07T14:40:53.313Z,47.4495
2019-04-07T14:42:11.266Z,49.3538
2019-04-07T14:43:29.894Z,49.0928
2019-04-07T14:44:47.380Z,51.4427
2019-04-07T14:46:04.384Z,52.0821
2019-04-07T14:47:21.914Z,50.9972
2019-04-07T14:48:40.212Z,50.7424
2019-04-07T14:49:57.749Z,50.6950
2019-04-07T14:51:15.539Z,48.6183
2019-04-07T14:52:33.722Z,48.4398
2019-04-07T14:53:51.185Z,48.5527
2019-04-07T14:55:08.654Z,48.1224
2019-04-07T14:56:26.295Z,48.4581
2019-04-07T14:57:43.751Z,50.5806
2019-04-07T14:59:00.651Z,48.9799
2019-04-07T15:00:18.374Z,49.1478
2019-04-07T15:01:36.765Z,49.8497
2019-04-07T15:02:54.267Z,47.6982
2019-04-07T15:04:11.753Z,47.0191
2019-04-07T15:05:29.846Z,47.9957
2019-04-07T15:06:47.363Z,47.4556
2019-04-07T15:07:59.483Z,47.7562
2019-04-07T15:09:18.793Z,49.5247
2019-04-07T15:10:37.241Z,51.9448
2019-04-07T15:11:54.809Z,51.4458
2019-04-07T15:13:12.257Z,52.4453
2019-04-07T15:14:32.874Z,53.0907
2019-04-07T15:15:51.673Z,52.5460
2019-04-07T15:17:10.955Z,54.0703
2019-04-07T15:18:28.654Z,52.4163
2019-04-07T15:19:46.250Z,49.7017
2019-04-07T15:21:04.575Z,51.3695
2019-04-07T15:22:25.887Z,53.3471
2019-04-07T15:23:46.795Z,51.2261
2019-04-07T15:25:07.201Z,51.8502
2019-04-07T15:26:25.520Z,49.8665
2019-04-07T15:27:42.981Z,49.3828
2019-04-07T15:29:05.334Z,48.8472
2019-04-07T15:30:22.853Z,50.3899
2019-04-07T15:31:40.612Z,50.1106
2019-04-07T15:33:01.008Z,52.6696
2019-04-07T15:34:20.126Z,51.7952
2019-04-07T15:35:38.289Z,53.3089
2019-04-07T15:36:56.797Z,51.4702
2019-04-07T15:38:15.285Z,51.0155
2019-04-07T15:39:32.887Z,52.2011
2019-04-07T15:40:50.641Z,55.0988
2019-04-07T15:42:09.463Z,54.3038
2019-04-07T15:43:27.991Z,54.8837
2019-04-07T15:44:46.267Z,56.1715
2019-04-07T15:46:03.845Z,57.5174
2019-04-07T15:47:22.234Z,55.7946